This is the latest recevied weather packets stored in our database for station/object EB2EMZ-W. If no packets are shown the sender has not sent any weather packets the latest 10 day(s).
| Time | Temp. | Humidity | Pressure | Rain* | Wind** | Luminosity | Snow |
|---|---|---|---|---|---|---|---|
| 1777684016 | 18.89° C | 50% | 1001 hPa | 0 mm | - | - | - |
| 1777682205 | 18.89° C | 53% | 1001 hPa | 0 mm | - | - | - |
| 1777680394 | 18.89° C | 55% | 1001 hPa | 0 mm | - | - | - |
| 1777678583 | 18.89° C | 55% | 1001 hPa | 0 mm | - | - | - |
| 1777675747 | 18.89° C | 54% | 1001 hPa | 0 mm | - | - | - |
| 1777673938 | 19.44° C | 53% | 1001 hPa | 0 mm | - | - | - |
| 1777672127 | 19.44° C | 54% | 1001 hPa | 0 mm | - | - | - |
| 1777670317 | 19.44° C | 56% | 1002 hPa | 0 mm | - | - | - |
| 1777668507 | 20° C | 56% | 1002 hPa | 0 mm | - | - | - |
| 1777666697 | 20.56° C | 52% | 1001 hPa | 0 mm | - | - | - |
| 1777664887 | 21.11° C | 49% | 1001 hPa | 0 mm | - | - | - |
| 1777663079 | 22.78° C | 38% | 1000 hPa | 0 mm | - | - | - |
| 1777661269 | 23.33° C | 35% | 1000 hPa | 0 mm | - | - | - |
| 1777659459 | 23.89° C | 33% | 1001 hPa | 0 mm | - | - | - |
| 1777657648 | 25.56° C | 31% | 1000 hPa | 0 mm | - | - | - |
| 1777655839 | 26.67° C | 25% | 1000 hPa | 0 mm | - | - | - |
| 1777654029 | 29.44° C | 20% | 1001 hPa | 0 mm | - | - | - |
| 1777652219 | 34.44° C | 17% | 1000 hPa | 0 mm | - | - | - |
| 1777650409 | 32.78° C | 19% | 1001 hPa | 0 mm | - | - | - |
| 1777646790 | 27.22° C | 27% | 1001 hPa | 0 mm | - | - | - |
| 1777644971 | 27.22° C | 28% | 1001 hPa | 0 mm | - | - | - |
| 1777643150 | 26.11° C | 30% | 1001 hPa | 0 mm | - | - | - |
| 1777641331 | 26.11° C | 30% | 1002 hPa | 0 mm | - | - | - |
| 1777639512 | 27.22° C | 29% | 1002 hPa | 0 mm | - | - | - |
| 1777637692 | 25.56° C | 30% | 1002 hPa | 0 mm | - | - | - |
* Rain latest hour (hover to see other rain measurements)
** Current wind speed in m/s (hover to see current wind gust speed)